Time;durP1;ratioP1;P1;durP2;ratioP2;P2;SDS_P1;SDS_P2;PMS_P1;PMS_P2;Temp;Humidity;BMP_temperature;BMP_pressure;BME280_temperature;BME280_humidity;BME280_pressure;Samples;Min_cycle;Max_cycle;Signal;HPM_P1;HPM_P2
2021/01/16 00:01:35;;;;;;;21.67;19.42;;;;;;;7.49;57.37;102974.69;4980631;28;20122;-85
2021/01/16 00:04:00;;;;;;;20.40;18.20;;;;;;;7.46;57.42;102974.94;4987531;28;20101;-86
2021/01/16 00:06:28;;;;;;;26.10;23.52;;;;;;;7.46;57.93;102982.16;4985492;28;20038;-86
2021/01/16 00:08:57;;;;;;;20.60;18.25;;;;;;;7.46;57.87;102985.75;4964602;28;20113;-85
2021/01/16 00:11:23;;;;;;;23.00;19.08;;;;;;;7.46;57.78;102972.22;4971024;28;20061;-86
2021/01/16 00:13:48;;;;;;;24.33;21.10;;;;;;;7.38;57.61;102952.16;4967658;28;20428;-86
2021/01/16 00:16:13;;;;;;;22.92;20.63;;;;;;;7.56;57.60;102979.59;4987847;28;20035;-85
2021/01/16 00:18:39;;;;;;;19.08;17.05;;;;;;;7.49;57.70;102969.25;4983634;28;20835;-86
2021/01/16 00:21:04;;;;;;;26.33;23.45;;;;;;;7.42;57.95;102972.59;4990966;28;20031;-85
2021/01/16 00:23:30;;;;;;;21.80;19.52;;;;;;;7.40;58.02;102978.13;4968795;28;20084;-86
2021/01/16 00:25:57;;;;;;;20.17;18.10;;;;;;;7.33;57.92;102966.06;4990838;28;20030;-86
2021/01/16 00:28:29;;;;;;;22.25;17.92;;;;;;;7.27;57.98;102971.94;4984256;28;20030;-86
2021/01/16 00:30:54;;;;;;;22.30;17.88;;;;;;;7.28;58.10;102971.81;4983695;28;20141;-86
2021/01/16 00:33:36;;;;;;;21.50;19.38;;;;;;;7.25;58.00;102963.09;4960551;28;20186;-86
2021/01/16 00:36:04;;;;;;;19.70;17.52;;;;;;;7.21;58.09;102953.50;4989598;28;20076;-87
2021/01/16 00:38:30;;;;;;;19.65;17.60;;;;;;;7.10;58.09;102957.91;4987005;28;20083;-88
2021/01/16 00:40:57;;;;;;;19.95;17.85;;;;;;;7.12;58.28;102957.78;4986347;28;20041;-86
2021/01/16 00:43:23;;;;;;;24.02;21.65;;;;;;;7.18;57.89;102954.59;4989333;28;20054;-86
2021/01/16 00:45:50;;;;;;;23.10;20.23;;;;;;;7.11;57.89;102956.94;4979568;28;20097;-86
2021/01/16 00:48:20;;;;;;;21.88;19.58;;;;;;;7.13;57.99;102946.84;4988344;28;20042;-86
2021/01/16 00:50:47;;;;;;;20.35;15.23;;;;;;;7.07;57.93;102944.63;4967128;28;20037;-88
2021/01/16 00:53:13;;;;;;;20.55;18.40;;;;;;;7.01;58.12;102941.53;4975069;28;20034;-85
2021/01/16 00:55:38;;;;;;;19.67;17.58;;;;;;;7.09;57.79;102934.56;4968419;28;20086;-87
2021/01/16 00:58:15;;;;;;;20.90;18.70;;;;;;;7.03;57.98;102936.84;4992034;28;20115;-86
2021/01/16 01:00:44;;;;;;;21.42;19.23;;;;;;;7.01;58.02;102925.31;4993823;28;20121;-91
2021/01/16 01:03:15;;;;;;;22.30;19.75;;;;;;;7.04;58.02;102933.19;4971672;28;20030;-89
2021/01/16 01:05:40;;;;;;;20.70;18.27;;;;;;;7.05;57.96;102932.22;4993950;28;20038;-90
2021/01/16 01:08:05;;;;;;;16.10;13.25;;;;;;;7.10;57.66;102921.88;4991544;28;20045;-86
2021/01/16 01:10:34;;;;;;;16.33;14.70;;;;;;;7.17;57.64;102936.66;4974188;28;20041;-89
2021/01/16 01:13:00;;;;;;;17.33;15.00;;;;;;;7.20;57.55;102941.81;4985745;28;20100;-84
2021/01/16 01:15:26;;;;;;;17.23;15.10;;;;;;;7.20;57.66;102935.53;4991324;28;20022;-86
2021/01/16 01:17:56;;;;;;;17.17;14.98;;;;;;;7.21;57.59;102924.56;4970562;28;20042;-87
2021/01/16 01:20:23;;;;;;;20.15;18.05;;;;;;;7.24;57.68;102935.16;4995039;28;20022;-86
2021/01/16 01:22:49;;;;;;;20.98;16.50;;;;;;;7.22;57.53;102926.31;4989417;28;20501;-85
2021/01/16 01:25:15;;;;;;;19.35;15.98;;;;;;;7.23;57.61;102922.63;4994034;28;20038;-87
2021/01/16 01:27:42;;;;;;;18.55;16.65;;;;;;;7.23;57.65;102921.75;4975302;28;20715;-85
2021/01/16 01:30:08;;;;;;;22.58;20.10;;;;;;;7.23;57.56;102921.75;4975645;28;20039;-85
2021/01/16 01:32:33;;;;;;;19.98;17.88;;;;;;;7.26;57.73;102926.91;4971720;28;20321;-86
2021/01/16 01:35:00;;;;;;;21.20;19.15;;;;;;;7.24;57.92;102912.66;4975661;28;20129;-86
2021/01/16 01:37:25;;;;;;;20.50;18.40;;;;;;;7.26;57.69;102918.78;4992569;28;20054;-86
2021/01/16 01:39:51;;;;;;;20.70;18.50;;;;;;;7.28;57.81;102908.72;4956087;28;20037;-87
2021/01/16 01:42:18;;;;;;;27.08;23.77;;;;;;;7.17;57.98;102913.16;4977962;28;20034;-87
2021/01/16 01:44:45;;;;;;;21.63;19.38;;;;;;;7.25;57.65;102911.69;4981173;28;20030;-86
2021/01/16 01:47:13;;;;;;;19.80;16.55;;;;;;;7.14;57.85;102907.97;4987447;28;20030;-86
2021/01/16 01:49:42;;;;;;;18.42;16.17;;;;;;;7.13;58.06;102903.53;4992582;28;20405;-87
2021/01/16 01:52:12;;;;;;;24.15;21.58;;;;;;;7.13;58.19;102914.38;4983250;28;20046;-86
2021/01/16 01:54:38;;;;;;;19.98;17.98;;;;;;;7.14;58.29;102917.94;4997432;28;20879;-86
2021/01/16 01:57:06;;;;;;;23.05;20.40;;;;;;;7.13;58.24;102913.50;4958438;28;20128;-85
2021/01/16 01:59:36;;;;;;;20.65;18.40;;;;;;;7.12;58.31;102907.25;4991259;28;20557;-87
2021/01/16 02:02:04;;;;;;;24.93;20.33;;;;;;;7.12;58.30;102907.25;4975741;28;20022;-87
2021/01/16 02:04:31;;;;;;;25.67;23.10;;;;;;;7.02;58.27;102900.84;4973641;28;20489;-86
2021/01/16 02:07:00;;;;;;;23.13;20.77;;;;;;;7.16;58.21;102911.41;4991114;28;20519;-86
2021/01/16 02:09:27;;;;;;;25.63;22.90;;;;;;;7.15;58.04;102908.84;4970540;28;20392;-86
2021/01/16 02:11:55;;;;;;;23.73;21.35;;;;;;;7.17;58.09;102909.59;4967757;28;20034;-86
2021/01/16 02:14:31;;;;;;;28.10;25.20;;;;;;;7.09;58.36;102898.50;4980379;28;20380;-85
2021/01/16 02:17:02;;;;;;;24.65;19.90;;;;;;;7.08;58.54;102905.75;4977163;28;20400;-85
2021/01/16 02:19:58;;;;;;;30.30;27.37;;;;;;;7.14;58.39;102910.69;4988910;28;20030;-87
2021/01/16 02:22:30;;;;;;;32.97;29.77;;;;;;;7.04;58.86;102901.56;4991968;28;20041;-88
2021/01/16 02:25:12;;;;;;;25.55;22.85;;;;;;;7.10;59.04;102901.06;4991154;28;20108;-86
2021/01/16 02:27:56;;;;;;;31.65;28.85;;;;;;;7.14;58.51;102899.00;4991789;28;20026;-87
2021/01/16 02:30:24;;;;;;;35.60;32.20;;;;;;;7.11;58.79;102896.56;4987209;28;20058;-87
2021/01/16 02:32:50;;;;;;;31.50;28.48;;;;;;;7.13;58.59;102889.16;4991269;28;20045;-87
2021/01/16 02:35:18;;;;;;;35.67;32.45;;;;;;;7.13;58.71;102881.91;4968598;28;20057;-86
2021/01/16 02:38:06;;;;;;;31.17;28.20;;;;;;;7.14;58.31;102886.34;4994092;28;20501;-87
2021/01/16 02:40:43;;;;;;;30.08;27.38;;;;;;;7.12;58.29;102874.78;4986334;28;20030;-89
2021/01/16 02:43:14;;;;;;;33.47;30.58;;;;;;;7.20;58.68;102879.56;4992041;28;20034;-87
2021/01/16 02:46:02;;;;;;;;;;;;;;;7.20;58.57;102874.16;4973013;28;20117;-86
2021/01/16 02:48:58;;;;;;;28.23;25.60;;;;;;;7.18;58.58;102865.28;4994750;28;20403;-88
2021/01/16 02:51:37;;;;;;;27.42;24.88;;;;;;;7.16;58.55;102861.84;4983795;28;20092;-88
2021/01/16 02:54:03;;;;;;;30.73;27.63;;;;;;;7.11;58.68;102862.22;4994567;28;20033;-88
2021/01/16 02:56:31;;;;;;;31.88;28.75;;;;;;;7.11;58.51;102851.41;4986394;28;20034;-87
2021/01/16 02:58:57;;;;;;;36.63;33.42;;;;;;;6.97;58.88;102830.88;4993616;28;20023;-86
2021/01/16 03:01:22;;;;;;;34.92;31.83;;;;;;;7.07;59.00;102841.81;4971400;28;20034;-88
2021/01/16 03:03:48;;;;;;;34.60;31.40;;;;;;;7.13;58.91;102845.88;4960226;28;20041;-88
2021/01/16 03:06:14;;;;;;;40.90;37.30;;;;;;;7.11;58.78;102832.47;4957271;28;20086;-85
2021/01/16 03:08:39;;;;;;;46.63;42.70;;;;;;;7.10;58.84;102827.19;4954518;28;20041;-86
2021/01/16 03:11:07;;;;;;;33.95;30.58;;;;;;;7.13;58.80;102833.19;4973092;28;20035;-86
2021/01/16 03:13:33;;;;;;;29.77;26.85;;;;;;;7.02;59.10;102832.34;4972192;28;20042;-85
2021/01/16 03:16:06;;;;;;;29.08;26.27;;;;;;;7.12;58.82;102823.38;4971133;28;20038;-85
2021/01/16 03:18:32;;;;;;;31.80;28.90;;;;;;;7.14;58.82;102820.53;4987121;28;20397;-86
2021/01/16 03:21:01;;;;;;;25.17;20.00;;;;;;;7.11;58.96;102821.66;4972327;28;20057;-86
2021/01/16 03:23:27;;;;;;;26.90;24.10;;;;;;;7.08;58.79;102815.63;4984692;28;20037;-88
2021/01/16 03:25:52;;;;;;;32.72;29.10;;;;;;;6.94;58.85;102804.06;4991522;28;20034;-87
2021/01/16 03:28:17;;;;;;;27.10;24.20;;;;;;;6.99;58.95;102809.09;4965176;28;20045;-89
2021/01/16 03:30:43;;;;;;;28.73;25.63;;;;;;;7.08;58.71;102802.94;4971746;28;20037;-87
2021/01/16 03:33:08;;;;;;;31.15;28.13;;;;;;;7.06;58.71;102804.94;4970056;28;20039;-86
2021/01/16 03:35:35;;;;;;;31.80;28.50;;;;;;;7.14;58.60;102804.31;4975973;28;20413;-86
2021/01/16 03:38:00;;;;;;;25.40;22.90;;;;;;;7.12;58.49;102801.72;4957675;28;20101;-87
2021/01/16 03:40:26;;;;;;;30.23;27.23;;;;;;;7.08;58.63;102808.38;4974105;28;20052;-86
2021/01/16 03:42:51;;;;;;;27.75;24.90;;;;;;;7.10;58.89;102814.50;4964190;28;20062;-85
2021/01/16 03:45:19;;;;;;;31.73;28.63;;;;;;;7.13;58.83;102808.84;4965905;28;20041;-86
2021/01/16 03:47:45;;;;;;;24.75;22.13;;;;;;;7.09;58.71;102795.69;4995113;28;20026;-87
2021/01/16 03:50:11;;;;;;;21.15;19.05;;;;;;;7.14;58.91;102791.63;4976383;28;20057;-88
2021/01/16 03:52:38;;;;;;;26.15;22.35;;;;;;;7.13;58.67;102798.03;4996039;28;20480;-88
2021/01/16 03:55:06;;;;;;;30.83;27.80;;;;;;;7.12;58.81;102799.03;4962714;28;20507;-88
2021/01/16 03:57:31;;;;;;;25.63;22.98;;;;;;;7.14;58.84;102790.78;4977018;28;20492;-88
2021/01/16 03:59:57;;;;;;;31.85;28.70;;;;;;;7.16;58.74;102791.50;4972541;28;20030;-87
2021/01/16 04:02:22;;;;;;;27.58;24.75;;;;;;;7.15;58.71;102778.94;4955783;28;20096;-87
2021/01/16 04:04:49;;;;;;;25.48;23.08;;;;;;;7.20;58.79;102784.00;4970829;28;20034;-88
2021/01/16 04:07:15;;;;;;;25.05;22.45;;;;;;;7.17;58.81;102772.44;4992422;28;20037;-85
2021/01/16 04:09:42;;;;;;;22.48;19.77;;;;;;;7.04;58.93;102771.72;4991430;28;20065;-89
2021/01/16 04:12:07;;;;;;;24.25;21.75;;;;;;;7.11;58.87;102770.25;4986061;28;20654;-86
2021/01/16 04:14:33;;;;;;;29.88;26.77;;;;;;;7.10;58.92;102757.69;4992672;28;20042;-87
2021/01/16 04:16:58;;;;;;;28.73;25.92;;;;;;;7.12;58.82;102754.84;4988103;28;20029;-86
2021/01/16 04:19:23;;;;;;;31.60;28.48;;;;;;;7.15;58.70;102749.19;4987988;28;20030;-86
2021/01/16 04:21:49;;;;;;;31.23;28.00;;;;;;;7.10;58.90;102752.28;4991795;28;20037;-88
2021/01/16 04:24:17;;;;;;;41.50;37.97;;;;;;;7.09;59.11;102756.00;4983864;28;20026;-87
2021/01/16 04:26:42;;;;;;;27.85;25.15;;;;;;;7.02;59.27;102745.78;4995008;28;20500;-90
2021/01/16 04:29:08;;;;;;;34.78;31.75;;;;;;;7.07;59.10;102744.41;4978029;28;20047;-89
2021/01/16 04:31:33;;;;;;;26.98;24.27;;;;;;;7.13;58.95;102741.19;4959328;28;20054;-88
2021/01/16 04:33:59;;;;;;;25.58;23.00;;;;;;;7.11;59.03;102748.59;4993036;28;20485;-88
2021/01/16 04:36:25;;;;;;;31.23;28.08;;;;;;;7.12;59.13;102733.22;4979712;28;20126;-87
2021/01/16 04:38:50;;;;;;;38.60;35.10;;;;;;;7.10;59.12;102730.63;4993456;28;20026;-86
2021/01/16 04:41:19;;;;;;;32.97;29.85;;;;;;;7.10;59.29;102727.06;5000305;28;20033;-87
2021/01/16 04:43:46;;;;;;;25.55;23.13;;;;;;;7.16;59.05;102734.69;4991531;28;20571;-88
2021/01/16 04:46:13;;;;;;;30.20;27.45;;;;;;;7.12;59.41;102725.97;4961613;28;20026;-88
2021/01/16 04:48:41;;;;;;;24.77;22.15;;;;;;;7.11;59.21;102723.41;4972935;28;20493;-87
2021/01/16 04:51:07;;;;;;;24.17;20.85;;;;;;;7.12;59.22;102720.56;4961688;28;20045;-87
2021/01/16 04:53:38;;;;;;;24.33;21.75;;;;;;;7.10;59.41;102714.41;4958718;28;20038;-89
2021/01/16 04:56:05;;;;;;;26.48;23.92;;;;;;;7.11;59.41;102716.13;4993140;28;20041;-89
2021/01/16 04:58:34;;;;;;;25.05;21.58;;;;;;;7.10;59.65;102702.72;4990403;28;20037;-86
2021/01/16 05:01:12;;;;;;;23.55;21.40;;;;;;;7.09;59.58;102704.59;4990250;28;20061;-88
2021/01/16 05:03:41;;;;;;;21.58;18.45;;;;;;;7.02;59.83;102706.06;4992702;28;20034;-91
2021/01/16 05:06:09;;;;;;;24.55;22.05;;;;;;;7.00;59.99;102699.94;4975355;28;20113;-90
2021/01/16 05:08:37;;;;;;;23.67;21.40;;;;;;;7.09;59.75;102693.75;5001603;28;20077;-87
2021/01/16 05:11:06;;;;;;;27.63;22.98;;;;;;;7.05;59.71;102688.72;4976106;28;20157;-91
2021/01/16 05:13:42;;;;;;;24.13;21.70;;;;;;;7.04;59.67;102681.59;4990981;28;20039;-88
2021/01/16 05:16:11;;;;;;;20.33;18.30;;;;;;;7.19;59.61;102680.31;4995225;28;20552;-87
2021/01/16 05:18:37;;;;;;;23.00;20.83;;;;;;;7.15;59.61;102682.44;4996913;28;20034;-87
2021/01/16 05:21:03;;;;;;;25.38;22.88;;;;;;;7.17;59.51;102680.44;4974959;28;20037;-87
2021/01/16 05:23:31;;;;;;;21.15;18.98;;;;;;;7.24;59.31;102680.78;4975173;28;21103;-86
2021/01/16 05:25:56;;;;;;;21.27;19.23;;;;;;;7.28;59.18;102679.53;4991878;28;20034;-86
2021/01/16 05:28:26;;;;;;;27.20;24.45;;;;;;;7.28;59.11;102676.84;4978545;28;20034;-88
2021/01/16 05:30:59;;;;;;;19.23;17.10;;;;;;;7.29;59.18;102670.44;4991125;28;20030;-87
2021/01/16 05:33:36;;;;;;;22.10;20.00;;;;;;;7.32;59.22;102670.19;4988803;28;20784;-87
2021/01/16 05:36:05;;;;;;;19.85;17.77;;;;;;;7.29;59.12;102666.84;4993049;28;20370;-88
2021/01/16 05:38:35;;;;;;;23.40;21.17;;;;;;;7.30;58.85;102657.75;4994477;28;20146;-90
2021/01/16 05:41:04;;;;;;;22.17;19.98;;;;;;;7.34;58.60;102649.25;4990367;28;20034;-87
2021/01/16 05:43:30;;;;;;;19.50;17.15;;;;;;;7.37;58.56;102653.56;4989471;28;20121;-88
2021/01/16 05:46:00;;;;;;;21.98;19.92;;;;;;;7.39;58.34;102656.13;4993954;28;20117;-86
2021/01/16 05:48:27;;;;;;;14.40;13.10;;;;;;;7.45;58.34;102653.75;4988255;28;20042;-86
2021/01/16 05:50:58;;;;;;;19.10;17.30;;;;;;;7.46;58.27;102650.06;4992045;28;20046;-88
2021/01/16 05:53:25;;;;;;;20.80;18.73;;;;;;;7.39;58.40;102639.91;4986094;28;20030;-90
2021/01/16 05:55:51;;;;;;;19.58;17.60;;;;;;;7.45;57.85;102644.78;4980552;28;20050;-90
2021/01/16 05:58:18;;;;;;;29.02;26.38;;;;;;;7.48;58.03;102628.28;4990160;28;20045;-86
2021/01/16 06:00:48;;;;;;;23.77;21.10;;;;;;;7.42;57.96;102629.66;4976057;28;20096;-87
2021/01/16 06:03:16;;;;;;;17.85;14.82;;;;;;;7.47;57.80;102634.66;4987052;28;20039;-91
2021/01/16 06:05:48;;;;;;;23.42;20.98;;;;;;;7.57;57.48;102635.63;4977254;28;20042;-87
2021/01/16 06:08:13;;;;;;;28.67;25.95;;;;;;;7.61;57.15;102630.78;4997404;28;20507;-88
2021/01/16 06:10:39;;;;;;;24.23;22.00;;;;;;;7.68;56.89;102623.84;4957383;28;20027;-88
2021/01/16 06:13:12;;;;;;;27.70;25.30;;;;;;;7.65;56.65;102624.13;4993338;28;20039;-89
2021/01/16 06:15:43;;;;;;;22.95;20.83;;;;;;;7.52;56.77;102606.22;4970235;28;20019;-85
2021/01/16 06:18:16;;;;;;;22.25;20.13;;;;;;;7.68;56.23;102619.28;4994792;28;20072;-88
2021/01/16 06:20:48;;;;;;;21.17;18.25;;;;;;;7.69;56.24;102617.41;4973485;28;20033;-87
2021/01/16 06:23:16;;;;;;;26.15;23.73;;;;;;;7.78;55.89;102621.19;4995160;28;20037;-90
2021/01/16 06:25:57;;;;;;;24.73;22.45;;;;;;;7.75;55.88;102618.75;4986470;28;20449;-90
2021/01/16 06:28:25;;;;;;;21.33;19.13;;;;;;;7.80;55.75;102611.94;5000595;28;20463;-90
2021/01/16 06:30:57;;;;;;;19.70;17.67;;;;;;;7.76;55.88;102613.19;4994228;28;20034;-90
2021/01/16 06:33:26;;;;;;;17.73;15.93;;;;;;;7.70;55.79;102601.03;4977775;28;20149;-87
2021/01/16 06:36:14;;;;;;;18.67;16.90;;;;;;;7.81;55.60;102600.09;4989563;28;20383;-86
2021/01/16 06:38:40;;;;;;;20.90;18.45;;;;;;;7.82;55.38;102606.41;4973970;28;20046;-87
2021/01/16 06:41:16;;;;;;;19.38;16.17;;;;;;;7.73;55.61;102599.94;4992401;28;20022;-88
2021/01/16 06:43:44;;;;;;;22.98;16.95;;;;;;;7.79;55.19;102595.84;4994449;28;20037;-90
2021/01/16 06:46:14;;;;;;;25.10;22.48;;;;;;;7.77;55.13;102605.91;4985825;28;20524;-87
2021/01/16 06:48:44;;;;;;;20.20;17.92;;;;;;;7.75;54.76;102587.09;4992091;28;20487;-86
2021/01/16 06:51:23;;;;;;;17.38;15.68;;;;;;;7.76;54.95;102604.22;4968527;28;20109;-88
2021/01/16 06:53:49;;;;;;;19.40;17.30;;;;;;;7.77;54.90;102595.09;4976034;28;20057;-89
2021/01/16 06:56:24;;;;;;;23.42;21.13;;;;;;;7.81;54.91;102594.69;4987336;28;20033;-89
2021/01/16 06:58:50;;;;;;;17.23;15.45;;;;;;;7.76;55.07;102605.06;4993708;28;20030;-85
2021/01/16 07:01:16;;;;;;;22.65;16.05;;;;;;;7.79;54.95;102598.53;4970542;28;20070;-86
2021/01/16 07:03:46;;;;;;;20.15;17.52;;;;;;;7.56;55.16;102601.41;4988902;28;20064;-84
2021/01/16 07:06:12;;;;;;;23.63;21.13;;;;;;;7.69;54.97;102599.34;4986309;28;20278;-87
2021/01/16 07:08:42;;;;;;;20.77;18.77;;;;;;;7.71;54.85;102596.50;4963129;28;20054;-85
2021/01/16 07:11:09;;;;;;;21.15;16.42;;;;;;;7.73;54.95;102596.38;4992983;28;20038;-85
2021/01/16 07:13:36;;;;;;;22.48;20.23;;;;;;;7.61;55.08;102591.00;4989501;28;20084;-86
2021/01/16 07:16:05;;;;;;;26.13;23.42;;;;;;;7.68;54.89;102594.91;4975183;28;20022;-87
2021/01/16 07:18:31;;;;;;;20.83;18.60;;;;;;;7.66;54.69;102596.03;4990653;28;20088;-89
2021/01/16 07:20:57;;;;;;;23.58;20.90;;;;;;;7.44;54.85;102584.34;4975770;28;20030;-86
2021/01/16 07:23:23;;;;;;;23.15;20.38;;;;;;;7.51;55.08;102590.97;4972899;28;20046;-85
2021/01/16 07:25:53;;;;;;;18.25;16.30;;;;;;;7.56;54.91;102582.44;4987084;28;20041;-85
2021/01/16 07:28:21;;;;;;;21.30;17.88;;;;;;;7.62;54.64;102590.03;4995474;28;20034;-87
2021/01/16 07:30:48;;;;;;;24.40;22.00;;;;;;;7.67;54.50;102579.66;4986764;28;20496;-87
2021/01/16 07:33:14;;;;;;;25.88;22.67;;;;;;;7.67;54.14;102584.22;4996522;28;20022;-87
2021/01/16 07:35:46;;;;;;;22.05;18.58;;;;;;;7.66;54.46;102577.94;4984107;28;20104;-85
2021/01/16 07:38:14;;;;;;;23.52;20.15;;;;;;;7.66;54.08;102567.13;4985091;28;20070;-86
2021/01/16 07:40:42;;;;;;;26.65;24.15;;;;;;;7.66;53.99;102564.41;4984047;28;20036;-89
2021/01/16 07:43:32;;;;;;;36.78;33.45;;;;;;;7.71;53.85;102569.41;4993474;28;20034;-87
2021/01/16 07:46:01;;;;;;;25.25;22.83;;;;;;;7.52;53.91;102562.91;4982906;28;20072;-85
2021/01/16 07:48:32;;;;;;;29.65;26.73;;;;;;;7.70;53.65;102555.00;4970679;28;20446;-88
2021/01/16 07:51:00;;;;;;;28.10;25.40;;;;;;;7.62;53.61;102560.25;4989618;28;20621;-86
2021/01/16 07:53:27;;;;;;;21.20;18.15;;;;;;;7.55;53.65;102553.66;4989595;28;20040;-87
2021/01/16 07:56:18;;;;;;;23.35;20.83;;;;;;;7.59;53.65;102554.25;4989738;28;20069;-89
2021/01/16 07:58:54;;;;;;;30.90;27.77;;;;;;;7.60;53.77;102553.25;4990425;28;20687;-87
2021/01/16 08:01:46;;;;;;;28.10;25.20;;;;;;;7.39;53.44;102547.88;4983011;28;20029;-86
2021/01/16 08:04:23;;;;;;;22.55;19.38;;;;;;;7.54;52.92;102554.66;4976729;28;20560;-87
2021/01/16 08:07:08;;;;;;;24.00;19.58;;;;;;;7.52;53.01;102545.78;4997947;28;20121;-85
2021/01/16 08:09:40;;;;;;;21.67;19.50;;;;;;;7.60;53.03;102545.13;4988294;28;20042;-86
2021/01/16 08:12:11;;;;;;;24.95;22.08;;;;;;;7.31;52.88;102545.81;4983773;28;20037;-87
2021/01/16 08:14:38;;;;;;;26.10;22.85;;;;;;;7.47;52.26;102546.19;4989274;28;20047;-87
2021/01/16 08:17:05;;;;;;;20.95;17.15;;;;;;;7.55;52.52;102536.56;4983572;28;20038;-86
2021/01/16 08:19:46;;;;;;;22.13;19.58;;;;;;;7.36;52.29;102532.75;4987285;28;20034;-90
2021/01/16 08:22:17;;;;;;;24.60;21.95;;;;;;;7.48;52.62;102520.00;4985585;28;20477;-86
2021/01/16 08:25:03;;;;;;;30.63;27.40;;;;;;;7.43;52.64;102533.06;4969358;28;20029;-87
2021/01/16 08:27:38;;;;;;;25.85;23.10;;;;;;;7.46;52.29;102530.97;4990527;28;21054;-89
2021/01/16 08:30:08;;;;;;;26.25;21.98;;;;;;;7.29;52.55;102526.13;4991590;28;20036;-87
2021/01/16 08:32:51;;;;;;;22.95;17.92;;;;;;;7.26;52.39;102511.03;4977983;28;20069;-90
2021/01/16 08:35:44;;;;;;;24.17;19.95;;;;;;;7.43;51.81;102506.00;4986597;28;20772;-88
2021/01/16 08:38:18;;;;;;;23.50;18.30;;;;;;;7.33;52.09;102511.34;4987098;28;20060;-88
2021/01/16 08:41:04;;;;;;;22.73;19.38;;;;;;;7.46;51.39;102511.13;4979953;28;20038;-89
2021/01/16 08:43:35;;;;;;;22.92;19.55;;;;;;;7.23;51.23;102507.72;4989247;28;20034;-89
2021/01/16 08:46:33;;;;;;;18.85;15.25;;;;;;;7.27;51.21;102491.09;4965594;28;20084;-86
2021/01/16 08:49:07;;;;;;;22.20;19.83;;;;;;;7.28;51.18;102498.22;4990518;28;20069;-86
2021/01/16 08:51:40;;;;;;;22.83;18.40;;;;;;;7.41;50.79;102486.34;4983763;28;20472;-88
2021/01/16 08:54:12;;;;;;;25.45;19.13;;;;;;;7.34;50.93;102486.88;4974268;28;20366;-87
2021/01/16 08:56:39;;;;;;;26.83;23.75;;;;;;;7.25;50.35;102490.38;4970733;28;20590;-88
2021/01/16 08:59:34;;;;;;;26.75;21.63;;;;;;;7.42;50.20;102494.31;4976405;28;20038;-90
2021/01/16 09:02:06;;;;;;;23.33;18.83;;;;;;;7.41;49.92;102487.19;4969496;28;20042;-90
2021/01/16 09:04:36;;;;;;;28.58;24.50;;;;;;;7.41;49.62;102492.59;4986924;28;20041;-91
2021/01/16 09:07:14;;;;;;;24.95;18.25;;;;;;;7.44;49.15;102489.63;4968395;28;20026;-92
2021/01/16 09:10:01;;;;;;;21.35;19.05;;;;;;;7.51;48.85;102492.66;4986470;28;20400;-92
2021/01/16 09:12:53;;;;;;;21.58;18.95;;;;;;;7.40;48.73;102490.00;4982671;28;20065;-88
2021/01/16 09:15:35;;;;;;;23.45;20.88;;;;;;;7.50;48.59;102493.63;4983574;28;20085;-86
2021/01/16 09:18:16;;;;;;;17.58;15.77;;;;;;;7.31;47.85;102491.69;4990830;28;20204;-87
2021/01/16 09:20:57;;;;;;;18.50;16.60;;;;;;;7.38;48.48;102482.03;4988399;28;20069;-86
2021/01/16 09:23:23;;;;;;;19.33;15.57;;;;;;;7.49;48.15;102486.50;4988668;28;20026;-89
2021/01/16 09:25:53;;;;;;;17.13;15.18;;;;;;;7.37;46.94;102479.47;4987461;28;20027;-88
2021/01/16 09:28:43;;;;;;;20.92;17.65;;;;;;;7.45;47.78;102485.06;4990119;28;20031;-90
2021/01/16 09:31:44;;;;;;;21.38;19.15;;;;;;;7.39;47.57;102482.91;4988344;28;20048;-89
2021/01/16 09:34:12;;;;;;;21.83;19.45;;;;;;;7.27;47.98;102490.25;4913194;29;20040;-87
2021/01/16 09:36:53;;;;;;;22.45;19.17;;;;;;;7.34;47.51;102480.59;4974631;28;20057;-90
2021/01/16 09:39:21;;;;;;;20.63;18.50;;;;;;;7.23;47.29;102488.78;4998775;28;20064;-89
2021/01/16 09:41:49;;;;;;;28.27;25.45;;;;;;;7.31;46.81;102489.00;4985416;28;20044;-86
2021/01/16 09:44:35;;;;;;;27.60;25.13;;;;;;;7.31;47.73;102495.25;4972961;28;20160;-90
2021/01/16 09:47:00;;;;;;;25.65;22.17;;;;;;;7.27;46.80;102490.25;4982108;28;20515;-88
2021/01/16 09:49:43;;;;;;;28.15;25.27;;;;;;;7.11;46.88;102483.47;4989704;28;20034;-88
2021/01/16 09:52:09;;;;;;;27.48;24.95;;;;;;;7.08;47.25;102486.44;4984886;28;20030;-88
2021/01/16 09:54:35;;;;;;;31.83;28.85;;;;;;;7.22;46.97;102477.13;4986690;28;20425;-88
2021/01/16 09:57:01;;;;;;;31.77;28.90;;;;;;;7.15;46.88;102473.22;4984277;28;20034;-88
2021/01/16 09:59:26;;;;;;;40.15;36.50;;;;;;;7.32;46.79;102479.88;4986380;28;20034;-88
2021/01/16 10:02:15;;;;;;;34.15;30.98;;;;;;;7.34;46.92;102473.34;4985939;28;20039;-88
2021/01/16 10:04:45;;;;;;;35.45;32.33;;;;;;;7.29;46.41;102466.59;4985508;28;20058;-88
2021/01/16 10:07:17;;;;;;;28.80;25.92;;;;;;;7.35;46.39;102472.34;4988018;28;20554;-90
2021/01/16 10:09:48;;;;;;;34.55;31.33;;;;;;;7.38;46.22;102465.78;4965113;28;20137;-89
2021/01/16 10:12:32;;;;;;;34.15;30.92;;;;;;;7.20;46.50;102465.59;4967962;28;20428;-89
2021/01/16 10:15:01;;;;;;;33.25;30.08;;;;;;;7.04;46.35;102457.06;4988304;28;20330;-89
2021/01/16 10:17:31;;;;;;;28.75;25.98;;;;;;;7.07;46.50;102444.13;4985448;28;20037;-88
2021/01/16 10:20:16;;;;;;;30.85;27.63;;;;;;;7.42;46.68;102453.72;4982328;28;20022;-91
2021/01/16 10:22:46;;;;;;;29.40;25.80;;;;;;;7.42;46.64;102455.56;4987068;28;20477;-86
2021/01/16 10:25:12;;;;;;;29.67;26.65;;;;;;;7.41;46.40;102443.88;4966839;28;20031;-88
2021/01/16 10:27:43;;;;;;;26.63;23.27;;;;;;;7.49;46.84;102448.59;4955678;28;20038;-87
2021/01/16 10:30:29;;;;;;;25.73;21.42;;;;;;;7.31;46.86;102449.25;4987225;28;20026;-89
2021/01/16 10:32:56;;;;;;;25.73;22.00;;;;;;;7.24;46.61;102448.06;4986875;28;20030;-88
2021/01/16 10:35:25;;;;;;;22.15;19.85;;;;;;;7.27;46.68;102438.81;4985527;28;20034;-90
2021/01/16 10:37:52;;;;;;;31.75;26.67;;;;;;;7.23;46.85;102430.13;4989079;28;20034;-90
2021/01/16 10:40:19;;;;;;;27.73;24.77;;;;;;;7.33;47.41;102430.16;4984505;28;20030;-89
2021/01/16 10:42:48;;;;;;;23.42;20.10;;;;;;;7.15;46.87;102428.09;4955527;28;20537;-89
2021/01/16 10:45:18;;;;;;;27.52;23.65;;;;;;;7.02;46.37;102422.03;4968469;28;20107;-88
2021/01/16 10:47:46;;;;;;;29.17;23.95;;;;;;;7.09;46.57;102412.41;4968491;28;20037;-87
2021/01/16 10:51:02;;;;;;;33.25;26.80;;;;;;;7.16;46.90;102407.31;4970395;28;20042;-89
2021/01/16 10:53:35;;;;;;;28.00;25.02;;;;;;;7.19;46.94;102407.03;4937534;28;20030;-91
2021/01/16 10:56:08;;;;;;;33.67;30.17;;;;;;;7.35;46.40;102393.00;4960186;28;20052;-89
2021/01/16 10:58:33;;;;;;;32.75;29.33;;;;;;;7.03;46.69;102375.06;4987249;28;20030;-87
2021/01/16 11:01:01;;;;;;;34.17;30.55;;;;;;;7.40;46.64;102388.03;4971838;28;20046;-88
2021/01/16 11:03:28;;;;;;;32.25;28.90;;;;;;;7.42;46.58;102372.50;4987445;28;20026;-88
2021/01/16 11:05:56;;;;;;;29.38;26.25;;;;;;;7.29;47.00;102377.31;4968757;28;20031;-88
2021/01/16 11:08:30;;;;;;;34.10;30.73;;;;;;;7.45;46.67;102369.53;4980888;28;20113;-89
2021/01/16 11:11:00;;;;;;;34.42;30.55;;;;;;;7.36;46.27;102356.81;4969398;28;20081;-90
2021/01/16 11:13:30;;;;;;;38.50;34.95;;;;;;;7.16;46.62;102351.34;4967564;28;20034;-87
2021/01/16 11:16:10;;;;;;;30.85;27.70;;;;;;;7.00;46.62;102345.59;4986718;28;20468;-88
2021/01/16 11:18:47;;;;;;;34.03;30.73;;;;;;;7.03;46.81;102342.63;4985066;28;20439;-90
2021/01/16 11:21:34;;;;;;;33.75;30.42;;;;;;;7.03;46.27;102334.50;4972132;28;20489;-89
2021/01/16 11:24:42;;;;;;;30.45;27.55;;;;;;;7.06;46.62;102336.94;4981967;28;20046;-86
2021/01/16 11:27:11;;;;;;;31.23;28.27;;;;;;;7.09;46.70;102319.56;4985728;28;20037;-89
2021/01/16 11:29:41;;;;;;;33.45;30.00;;;;;;;7.02;47.33;102332.78;4966939;28;20089;-88
2021/01/16 11:32:33;;;;;;;28.02;25.13;;;;;;;7.15;47.05;102316.31;4987200;28;20497;-89
2021/01/16 11:35:07;;;;;;;;;;;;;;;6.87;46.92;102305.22;4985751;28;20030;-87